createdAt,value
2019-02-15T00:00:13.814Z,75.67
2019-02-15T00:02:48.356Z,75.32
2019-02-15T00:05:14.971Z,75.39
2019-02-15T00:07:41.647Z,75.16
2019-02-15T00:10:08.243Z,75.05
2019-02-15T00:12:34.853Z,75.21
2019-02-15T00:15:01.463Z,76.43
2019-02-15T00:17:31.556Z,77.10
2019-02-15T00:20:00.148Z,76.66
2019-02-15T00:22:26.835Z,76.06
2019-02-15T00:24:53.434Z,75.46
2019-02-15T00:27:20.053Z,75.78
2019-02-15T00:29:46.644Z,76.16
2019-02-15T00:32:13.406Z,75.64
2019-02-15T00:34:39.928Z,75.02
2019-02-15T00:37:06.510Z,75.21
2019-02-15T00:39:33.137Z,75.25
2019-02-15T00:41:59.746Z,76.03
2019-02-15T00:44:26.302Z,77.10
2019-02-15T00:46:54.832Z,77.22
2019-02-15T00:49:23.336Z,77.16
2019-02-15T00:51:51.841Z,77.22
2019-02-15T00:54:20.319Z,77.70
2019-02-15T00:56:48.833Z,77.79
2019-02-15T00:59:17.343Z,77.93
2019-02-15T01:01:46.044Z,77.76
2019-02-15T01:04:14.546Z,77.02
2019-02-15T01:06:43.032Z,76.51
2019-02-15T01:09:12.803Z,76.69
2019-02-15T01:11:41.525Z,76.27
2019-02-15T01:14:08.074Z,77.15
2019-02-15T01:16:34.699Z,77.13
2019-02-15T01:19:01.279Z,76.69
2019-02-15T01:21:27.856Z,76.79
2019-02-15T01:23:54.477Z,76.94
2019-02-15T01:26:23.007Z,77.25
2019-02-15T01:28:51.544Z,77.00
2019-02-15T01:31:20.071Z,77.45
2019-02-15T01:33:48.529Z,77.28
2019-02-15T01:36:17.055Z,77.26
2019-02-15T01:38:45.820Z,77.63
2019-02-15T01:41:14.431Z,76.89
2019-02-15T01:43:43.019Z,77.77
2019-02-15T01:46:11.627Z,76.86
2019-02-15T01:48:38.218Z,76.96
2019-02-15T01:51:04.753Z,76.26
2019-02-15T01:53:31.370Z,76.07
2019-02-15T01:56:54.229Z,76.71
2019-02-15T01:59:20.876Z,75.88
2019-02-15T02:01:47.474Z,77.25
2019-02-15T02:04:14.024Z,77.09
2019-02-15T02:06:40.624Z,78.31
2019-02-15T02:09:07.200Z,77.92
2019-02-15T02:11:33.925Z,77.79
2019-02-15T02:14:00.554Z,78.06
2019-02-15T02:16:27.180Z,79.25
2019-02-15T02:18:53.760Z,78.54
2019-02-15T02:21:20.365Z,77.94
2019-02-15T02:23:46.987Z,77.13
2019-02-15T02:26:13.562Z,76.79
2019-02-15T02:28:40.132Z,76.91
2019-02-15T02:31:06.821Z,77.11
2019-02-15T02:33:33.456Z,76.71
2019-02-15T02:36:01.329Z,76.77
2019-02-15T02:38:27.924Z,76.95
2019-02-15T02:40:54.494Z,77.08
2019-02-15T02:43:21.108Z,76.99
2019-02-15T02:45:48.939Z,76.67
2019-02-15T02:48:15.584Z,76.19
2019-02-15T02:50:42.175Z,76.40
2019-02-15T02:53:08.703Z,76.09
2019-02-15T02:55:35.307Z,76.73
2019-02-15T02:58:01.934Z,76.78
2019-02-15T03:00:33.649Z,76.55
2019-02-15T03:02:57.020Z,76.57
2019-02-15T03:05:23.574Z,76.50
2019-02-15T03:07:50.212Z,76.68
2019-02-15T03:10:17.332Z,76.83
2019-02-15T03:12:44.020Z,76.14
2019-02-15T03:15:10.593Z,77.16
2019-02-15T03:17:37.219Z,77.26
2019-02-15T03:20:05.936Z,77.31
2019-02-15T03:22:32.636Z,77.08
2019-02-15T03:24:59.269Z,76.62
2019-02-15T03:27:27.063Z,76.51
2019-02-15T03:29:53.635Z,77.11
2019-02-15T03:32:20.299Z,76.67
2019-02-15T03:34:47.049Z,76.78
2019-02-15T03:37:15.626Z,76.60
2019-02-15T03:39:44.147Z,77.05
2019-02-15T03:42:12.758Z,76.64
2019-02-15T03:44:39.306Z,76.69
2019-02-15T03:47:05.879Z,77.26
2019-02-15T03:49:32.458Z,77.15
2019-02-15T03:51:59.016Z,77.17
2019-02-15T03:54:25.664Z,77.82
2019-02-15T03:56:52.294Z,77.69
2019-02-15T03:59:18.867Z,77.71
2019-02-15T04:01:45.860Z,78.06
2019-02-15T04:04:12.414Z,77.61
2019-02-15T04:06:38.946Z,78.30
2019-02-15T04:09:05.815Z,77.03
2019-02-15T04:11:32.469Z,77.44
2019-02-15T04:13:59.186Z,77.16
2019-02-15T04:16:25.762Z,77.33
2019-02-15T04:18:52.367Z,77.42
2019-02-15T04:21:19.113Z,77.05
2019-02-15T04:23:45.711Z,77.17
2019-02-15T04:26:12.391Z,77.01
2019-02-15T04:28:38.953Z,77.25
2019-02-15T04:31:05.519Z,77.20
2019-02-15T04:33:32.181Z,77.48
2019-02-15T04:36:00.099Z,77.12
2019-02-15T04:38:26.822Z,77.31
2019-02-15T04:40:53.452Z,77.53
2019-02-15T04:43:20.056Z,77.91
2019-02-15T04:45:46.624Z,77.83
2019-02-15T04:48:13.185Z,76.87
2019-02-15T04:50:39.805Z,77.32
2019-02-15T04:53:06.448Z,77.46
2019-02-15T04:55:33.026Z,76.68
2019-02-15T04:57:59.648Z,76.67
2019-02-15T05:00:26.269Z,76.95
2019-02-15T05:02:52.814Z,77.39
2019-02-15T05:05:19.398Z,76.88
2019-02-15T05:07:46.314Z,76.43
2019-02-15T05:10:13.078Z,76.80
2019-02-15T05:12:39.734Z,77.21
2019-02-15T05:15:07.232Z,76.57
2019-02-15T05:17:33.969Z,77.41
2019-02-15T05:20:03.349Z,77.00
2019-02-15T05:22:29.910Z,76.82
2019-02-15T05:24:56.604Z,76.90
2019-02-15T05:27:23.301Z,76.57
2019-02-15T05:29:49.943Z,76.82
2019-02-15T05:32:16.704Z,76.86
2019-02-15T05:34:43.526Z,76.85
2019-02-15T05:37:10.131Z,77.44
2019-02-15T05:39:36.711Z,76.59
2019-02-15T05:42:03.263Z,75.90
2019-02-15T05:44:29.841Z,76.29
2019-02-15T05:46:56.885Z,76.20
2019-02-15T05:49:23.477Z,76.32
2019-02-15T05:51:50.131Z,75.88
2019-02-15T05:54:17.323Z,76.43
2019-02-15T05:56:44.113Z,77.04
2019-02-15T05:59:10.783Z,76.75
2019-02-15T06:01:37.458Z,75.79
2019-02-15T06:04:04.052Z,75.70
2019-02-15T06:06:30.695Z,75.67
2019-02-15T06:08:57.304Z,75.55
2019-02-15T06:11:23.874Z,75.32
2019-02-15T06:13:50.761Z,75.62
2019-02-15T06:16:17.393Z,75.71
2019-02-15T06:18:44.136Z,75.99
2019-02-15T06:21:10.741Z,76.26
2019-02-15T06:23:38.307Z,75.36
2019-02-15T06:26:04.863Z,75.86
2019-02-15T06:28:31.586Z,75.75
2019-02-15T06:30:58.124Z,75.75
2019-02-15T06:33:24.742Z,75.33
2019-02-15T06:35:51.356Z,75.58
2019-02-15T06:38:18.029Z,75.54
2019-02-15T06:40:45.995Z,76.44
2019-02-15T06:43:12.676Z,76.90
2019-02-15T06:45:39.214Z,76.29
2019-02-15T06:48:05.810Z,75.97
2019-02-15T06:50:32.398Z,76.07
2019-02-15T06:52:58.967Z,75.25
2019-02-15T06:55:25.595Z,75.37
2019-02-15T06:58:51.097Z,75.64
2019-02-15T07:01:19.671Z,75.89
2019-02-15T07:03:49.579Z,75.77
2019-02-15T07:06:16.128Z,75.66
2019-02-15T07:08:42.817Z,75.47
2019-02-15T07:11:09.370Z,75.36
2019-02-15T07:13:35.941Z,74.94
2019-02-15T07:16:02.548Z,75.21
2019-02-15T07:18:29.106Z,75.29
2019-02-15T07:20:55.702Z,74.93
2019-02-15T07:23:22.239Z,75.09
2019-02-15T07:25:49.581Z,74.38
2019-02-15T07:28:16.536Z,74.71
2019-02-15T07:30:46.265Z,73.96
2019-02-15T07:33:12.969Z,74.61
2019-02-15T07:35:39.757Z,74.69
2019-02-15T07:38:06.463Z,74.88
2019-02-15T07:40:33.013Z,74.64
2019-02-15T07:42:59.831Z,74.29
2019-02-15T07:45:26.738Z,74.04
2019-02-15T07:47:53.338Z,73.48
2019-02-15T07:50:20.117Z,74.06
2019-02-15T07:52:46.723Z,74.07
2019-02-15T07:55:13.271Z,73.44
2019-02-15T07:57:40.453Z,73.79
2019-02-15T08:00:13.240Z,73.06
2019-02-15T08:02:39.820Z,73.18
2019-02-15T08:05:07.986Z,73.11
2019-02-15T08:07:34.620Z,73.04
2019-02-15T08:10:01.455Z,72.73
2019-02-15T08:12:28.191Z,72.38
2019-02-15T08:14:54.951Z,72.30
2019-02-15T08:17:21.568Z,72.56
2019-02-15T08:19:48.177Z,72.33
2019-02-15T08:22:14.939Z,71.46
2019-02-15T08:24:41.522Z,71.65
2019-02-15T08:27:08.132Z,71.00
2019-02-15T08:29:34.690Z,71.85
2019-02-15T08:32:01.316Z,71.19
2019-02-15T08:34:27.923Z,70.93
2019-02-15T08:36:54.554Z,70.22
2019-02-15T08:39:21.153Z,69.96
2019-02-15T08:42:00.534Z,69.28
2019-02-15T08:44:16.232Z,69.88
2019-02-15T08:46:43.147Z,68.98
2019-02-15T08:49:09.936Z,69.31
2019-02-15T08:51:36.528Z,68.72
2019-02-15T08:54:03.117Z,68.22
2019-02-15T08:56:29.719Z,68.26
2019-02-15T08:58:56.456Z,67.74
2019-02-15T09:01:23.139Z,66.88
2019-02-15T09:03:49.672Z,66.83
2019-02-15T09:06:16.273Z,66.74
2019-02-15T09:08:42.922Z,66.01
2019-02-15T09:11:09.610Z,66.01
2019-02-15T09:13:36.379Z,65.74
2019-02-15T09:16:10.138Z,65.59
2019-02-15T09:18:31.449Z,65.00
2019-02-15T09:20:58.103Z,65.16
2019-02-15T09:23:24.661Z,66.03
2019-02-15T09:25:51.246Z,64.54
2019-02-15T09:28:19.789Z,64.81
2019-02-15T09:30:48.322Z,64.12
2019-02-15T09:33:14.874Z,63.31
2019-02-15T09:35:41.471Z,62.96
2019-02-15T09:38:08.059Z,64.27
2019-02-15T09:40:34.629Z,64.11
2019-02-15T09:43:01.218Z,64.37
2019-02-15T09:46:24.311Z,64.93
2019-02-15T09:48:50.855Z,64.47
2019-02-15T09:51:17.547Z,63.81
2019-02-15T09:53:44.354Z,62.69
2019-02-15T09:57:07.469Z,62.87
2019-02-15T09:59:34.084Z,63.81
2019-02-15T10:02:00.772Z,63.21
2019-02-15T10:04:27.391Z,62.89
2019-02-15T10:06:54.035Z,62.57
2019-02-15T10:09:20.605Z,62.01
2019-02-15T10:11:47.251Z,61.80
2019-02-15T10:14:13.855Z,61.60
2019-02-15T10:16:40.531Z,62.11
2019-02-15T10:19:07.136Z,61.40
2019-02-15T10:21:33.742Z,61.97
2019-02-15T10:24:00.310Z,61.25
2019-02-15T10:26:27.080Z,61.38
2019-02-15T10:28:53.783Z,60.79
2019-02-15T10:31:20.466Z,60.82
2019-02-15T10:33:47.105Z,61.06
2019-02-15T10:36:13.804Z,61.07
2019-02-15T10:38:40.395Z,61.10
2019-02-15T10:41:06.983Z,60.45
2019-02-15T10:43:33.612Z,60.66
2019-02-15T10:46:00.188Z,60.49
2019-02-15T10:48:26.885Z,60.90
2019-02-15T10:50:53.531Z,60.87
2019-02-15T10:53:20.093Z,60.16
2019-02-15T10:55:46.660Z,60.02
2019-02-15T10:58:15.982Z,59.53
2019-02-15T11:00:42.621Z,59.11
2019-02-15T11:03:09.293Z,59.82
2019-02-15T11:06:32.365Z,59.82
2019-02-15T11:08:58.936Z,59.57
2019-02-15T11:11:25.639Z,60.00
2019-02-15T11:13:52.215Z,59.96
2019-02-15T11:16:19.880Z,59.13
2019-02-15T11:18:46.515Z,59.18
2019-02-15T11:21:14.557Z,59.26
2019-02-15T11:23:41.152Z,59.58
2019-02-15T11:26:07.735Z,59.93
2019-02-15T11:28:34.598Z,60.50
2019-02-15T11:31:01.205Z,60.11
2019-02-15T11:33:27.736Z,59.57
2019-02-15T11:35:54.340Z,59.46
2019-02-15T11:38:20.878Z,60.02
2019-02-15T11:40:47.490Z,59.83
2019-02-15T11:43:15.164Z,59.41
2019-02-15T11:45:42.011Z,59.95
2019-02-15T11:48:08.613Z,60.66
2019-02-15T11:50:36.004Z,60.92
2019-02-15T11:53:02.938Z,60.48
2019-02-15T11:55:29.541Z,61.17
2019-02-15T11:57:56.987Z,61.12
2019-02-15T12:00:26.256Z,59.39
2019-02-15T12:02:52.832Z,59.47
2019-02-15T12:05:21.473Z,59.51
2019-02-15T12:07:48.072Z,58.23
2019-02-15T12:10:14.646Z,56.85
2019-02-15T12:12:41.261Z,56.20
2019-02-15T12:15:09.370Z,56.60
2019-02-15T12:17:35.911Z,56.05
2019-02-15T12:20:07.580Z,58.31
2019-02-15T12:22:34.153Z,58.32
2019-02-15T12:25:00.729Z,59.26
2019-02-15T12:27:27.362Z,59.37
2019-02-15T12:29:53.943Z,57.96
2019-02-15T12:32:20.572Z,58.22
2019-02-15T12:34:47.376Z,57.92
2019-02-15T12:37:13.935Z,57.88
2019-02-15T12:39:40.799Z,58.09
2019-02-15T12:42:10.396Z,58.53
2019-02-15T12:44:37.781Z,58.47
2019-02-15T12:47:04.402Z,58.62
2019-02-15T12:49:30.974Z,58.94
2019-02-15T12:51:57.538Z,58.69
2019-02-15T12:54:24.379Z,59.36
2019-02-15T12:56:50.977Z,58.38
2019-02-15T12:59:29.648Z,58.17
2019-02-15T13:01:56.425Z,57.78
2019-02-15T13:04:23.111Z,57.96
2019-02-15T13:06:49.860Z,58.16
2019-02-15T13:09:16.668Z,58.18
2019-02-15T13:11:44.715Z,59.26
2019-02-15T13:14:11.399Z,59.93
2019-02-15T13:16:37.990Z,58.97
2019-02-15T13:19:04.554Z,58.91
2019-02-15T13:21:31.121Z,59.03
2019-02-15T13:23:57.905Z,60.25
2019-02-15T13:26:24.639Z,59.82
2019-02-15T13:28:51.318Z,60.23
2019-02-15T13:31:17.960Z,59.78
2019-02-15T13:34:40.833Z,60.00
2019-02-15T13:37:07.501Z,59.84
2019-02-15T13:39:34.289Z,59.42
2019-02-15T13:42:00.868Z,59.58
2019-02-15T13:45:23.853Z,59.13
2019-02-15T13:47:50.795Z,59.49
2019-02-15T13:50:19.064Z,59.61
2019-02-15T13:52:46.037Z,59.60
2019-02-15T13:55:12.673Z,59.66
2019-02-15T13:57:39.347Z,59.92
2019-02-15T14:00:11.624Z,59.91
2019-02-15T14:02:38.255Z,59.66
2019-02-15T14:05:09.698Z,59.91
2019-02-15T14:07:36.536Z,59.34
2019-02-15T14:10:07.334Z,59.49
2019-02-15T14:12:35.037Z,59.42
2019-02-15T14:15:02.701Z,59.71
2019-02-15T14:17:29.301Z,59.56
2019-02-15T14:19:55.907Z,59.69
2019-02-15T14:22:22.639Z,59.97
2019-02-15T14:24:49.398Z,59.94
2019-02-15T14:27:16.020Z,59.66
2019-02-15T14:29:42.596Z,60.03
2019-02-15T14:32:09.203Z,59.59
2019-02-15T14:34:35.899Z,60.27
2019-02-15T14:37:02.551Z,59.87
2019-02-15T14:39:29.229Z,60.21
2019-02-15T14:41:55.858Z,60.62
2019-02-15T14:44:22.598Z,60.41
2019-02-15T14:46:49.184Z,60.28
2019-02-15T14:49:15.748Z,60.31
2019-02-15T14:51:42.419Z,60.22
2019-02-15T14:54:10.295Z,60.07
2019-02-15T14:56:37.156Z,60.22
2019-02-15T14:59:03.703Z,61.12
2019-02-15T15:01:31.254Z,61.98
2019-02-15T15:03:57.861Z,62.86
2019-02-15T15:06:24.484Z,63.32
2019-02-15T15:08:51.043Z,63.49
2019-02-15T15:11:17.627Z,65.00
2019-02-15T15:13:44.366Z,65.20
2019-02-15T15:16:10.970Z,66.02
2019-02-15T15:18:37.529Z,66.04
2019-02-15T15:21:04.169Z,66.16
2019-02-15T15:23:30.800Z,65.71
2019-02-15T15:25:57.403Z,66.12
2019-02-15T15:28:23.997Z,66.15
2019-02-15T15:30:50.594Z,66.10
2019-02-15T15:33:17.383Z,66.19
2019-02-15T15:35:44.001Z,66.27
2019-02-15T15:39:07.777Z,66.91
2019-02-15T15:41:34.693Z,66.46
2019-02-15T15:44:01.353Z,66.68
2019-02-15T15:46:28.021Z,66.92
2019-02-15T15:48:54.626Z,66.81
2019-02-15T15:51:21.315Z,66.19
2019-02-15T15:53:48.078Z,65.90
2019-02-15T15:56:14.717Z,65.28
2019-02-15T15:58:41.280Z,65.37
2019-02-15T16:01:07.883Z,66.00
2019-02-15T16:03:34.616Z,66.17
2019-02-15T16:06:01.370Z,66.11
2019-02-15T16:08:28.212Z,66.79
2019-02-15T16:10:55.493Z,67.06
2019-02-15T16:13:22.642Z,67.83
2019-02-15T16:15:49.206Z,67.56
2019-02-15T16:18:15.839Z,67.78
2019-02-15T16:20:42.583Z,68.02
2019-02-15T16:23:09.449Z,67.77
2019-02-15T16:25:36.451Z,67.84
2019-02-15T16:28:03.319Z,67.90
2019-02-15T16:30:29.935Z,68.16
2019-02-15T16:32:56.632Z,68.25
2019-02-15T16:35:23.283Z,68.27
2019-02-15T16:37:49.978Z,68.45
2019-02-15T16:40:16.905Z,68.26
2019-02-15T16:42:45.272Z,68.15
2019-02-15T16:45:15.118Z,68.13
2019-02-15T16:47:42.158Z,68.67
2019-02-15T16:50:09.939Z,68.95
2019-02-15T16:52:36.917Z,69.40
2019-02-15T16:55:12.684Z,69.44
2019-02-15T16:58:31.783Z,69.42
2019-02-15T17:00:58.479Z,69.94
2019-02-15T17:03:25.237Z,69.50
2019-02-15T17:05:51.812Z,70.03
2019-02-15T17:08:18.422Z,70.11
2019-02-15T17:10:45.231Z,69.71
2019-02-15T17:13:11.918Z,70.39
2019-02-15T17:15:38.890Z,70.15
2019-02-15T17:18:05.536Z,70.25
2019-02-15T17:20:33.025Z,70.68
2019-02-15T17:22:59.761Z,70.97
2019-02-15T17:25:27.047Z,71.40
2019-02-15T17:27:53.664Z,71.73
2019-02-15T17:30:20.379Z,72.14
2019-02-15T17:32:46.976Z,72.61
2019-02-15T17:35:13.577Z,71.82
2019-02-15T17:37:40.161Z,71.67
2019-02-15T17:40:10.666Z,72.49
2019-02-15T17:42:37.293Z,72.53
2019-02-15T17:45:07.248Z,72.18
2019-02-15T17:47:33.902Z,72.15
2019-02-15T17:50:00.474Z,71.98
2019-02-15T17:52:27.099Z,71.36
2019-02-15T17:54:53.707Z,71.05
2019-02-15T17:57:20.303Z,70.82
2019-02-15T17:59:46.978Z,71.27
2019-02-15T18:02:13.748Z,71.53
2019-02-15T18:04:40.395Z,70.68
2019-02-15T18:07:06.999Z,70.94
2019-02-15T18:09:33.596Z,71.46
2019-02-15T18:12:00.169Z,71.64
2019-02-15T18:14:26.911Z,72.13
2019-02-15T18:16:53.506Z,71.53
2019-02-15T18:19:20.101Z,70.95
2019-02-15T18:21:47.129Z,70.80
2019-02-15T18:24:14.005Z,71.69
2019-02-15T18:26:40.566Z,71.50
2019-02-15T18:29:07.151Z,71.63
2019-02-15T18:31:33.753Z,71.67
2019-02-15T18:34:00.392Z,72.03
2019-02-15T18:36:27.137Z,72.00
2019-02-15T18:38:53.730Z,72.45
2019-02-15T18:41:20.361Z,72.03
2019-02-15T18:43:47.059Z,72.90
2019-02-15T18:46:13.806Z,72.20
2019-02-15T18:48:40.419Z,72.24
2019-02-15T18:51:07.004Z,72.58
2019-02-15T18:53:33.883Z,72.48
2019-02-15T18:56:00.477Z,73.07
2019-02-15T18:58:27.060Z,72.70
2019-02-15T19:00:53.605Z,72.48
2019-02-15T19:03:20.261Z,72.93
2019-02-15T19:05:47.201Z,72.43
2019-02-15T19:08:13.797Z,72.64
2019-02-15T19:10:40.529Z,72.58
2019-02-15T19:13:07.109Z,72.43
2019-02-15T19:15:33.682Z,73.70
2019-02-15T19:18:00.282Z,72.92
2019-02-15T19:20:26.889Z,73.28
2019-02-15T19:22:53.467Z,73.30
2019-02-15T19:25:20.065Z,72.87
2019-02-15T19:27:47.067Z,72.56
2019-02-15T19:30:18.674Z,72.90
2019-02-15T19:32:45.569Z,73.10
2019-02-15T19:35:12.614Z,72.91
2019-02-15T19:37:39.226Z,72.64
2019-02-15T19:40:10.666Z,73.00
2019-02-15T19:42:39.065Z,72.89
2019-02-15T19:45:09.459Z,73.52
2019-02-15T19:47:36.190Z,72.62
2019-02-15T19:50:08.134Z,72.65
2019-02-15T19:52:34.692Z,72.72
2019-02-15T19:55:01.633Z,72.93
2019-02-15T19:57:28.341Z,72.83
2019-02-15T19:59:54.928Z,73.49
2019-02-15T20:02:21.874Z,73.56
2019-02-15T20:04:48.923Z,73.58
2019-02-15T20:07:15.557Z,73.32
2019-02-15T20:09:42.117Z,72.98
2019-02-15T20:12:08.735Z,73.10
2019-02-15T20:14:35.460Z,73.72
2019-02-15T20:17:02.034Z,73.56
2019-02-15T20:19:28.626Z,74.35
2019-02-15T20:21:55.232Z,73.88
2019-02-15T20:24:21.826Z,74.24
2019-02-15T20:26:48.441Z,73.45
2019-02-15T20:29:14.989Z,73.30
2019-02-15T20:31:41.617Z,73.31
2019-02-15T20:34:08.503Z,74.01
2019-02-15T20:36:35.076Z,73.69
2019-02-15T20:39:01.689Z,73.88
2019-02-15T20:42:26.947Z,73.54
2019-02-15T20:44:54.552Z,73.84
2019-02-15T20:47:21.948Z,74.33
2019-02-15T20:49:57.630Z,73.70
2019-02-15T20:52:18.707Z,73.46
2019-02-15T20:54:45.494Z,74.27
2019-02-15T20:57:12.705Z,74.12
2019-02-15T20:59:40.096Z,74.24
2019-02-15T21:02:06.745Z,73.96
2019-02-15T21:04:33.420Z,74.03
2019-02-15T21:07:00.113Z,73.85
2019-02-15T21:09:26.669Z,74.64
2019-02-15T21:11:53.208Z,74.74
2019-02-15T21:14:19.834Z,74.25
2019-02-15T21:16:46.576Z,73.75
2019-02-15T21:19:14.729Z,74.94
2019-02-15T21:21:41.459Z,74.45
2019-02-15T21:24:08.581Z,74.90
2019-02-15T21:26:35.790Z,74.30
2019-02-15T21:29:02.422Z,74.45
2019-02-15T21:31:29.619Z,74.12
2019-02-15T21:33:56.360Z,74.73
2019-02-15T21:36:23.302Z,74.83
2019-02-15T21:38:50.045Z,74.87
2019-02-15T21:41:16.724Z,74.76
2019-02-15T21:43:43.345Z,74.36
2019-02-15T21:46:13.073Z,74.37
2019-02-15T21:48:39.796Z,74.04
2019-02-15T21:54:51.156Z,74.84
2019-02-15T21:57:18.115Z,74.88
2019-02-15T21:59:44.914Z,74.75
2019-02-15T22:02:12.738Z,74.90
2019-02-15T22:04:51.400Z,74.84
2019-02-15T22:07:18.903Z,75.00
2019-02-15T22:09:45.699Z,76.33
2019-02-15T22:12:12.341Z,76.68
2019-02-15T22:14:38.932Z,75.59
2019-02-15T22:17:05.522Z,75.70
2019-02-15T22:19:32.104Z,75.32
2019-02-15T22:21:58.712Z,75.20
2019-02-15T22:24:25.265Z,75.34
2019-02-15T22:26:51.842Z,75.13
2019-02-15T22:29:18.513Z,75.21
2019-02-15T22:31:45.223Z,75.00
2019-02-15T22:34:11.855Z,74.83
2019-02-15T22:36:38.561Z,75.46
2019-02-15T22:39:05.264Z,75.77
2019-02-15T22:41:33.252Z,75.00
2019-02-15T22:43:59.870Z,75.08
2019-02-15T22:46:26.497Z,74.60
2019-02-15T22:48:53.049Z,74.78
2019-02-15T22:51:19.616Z,75.07
2019-02-15T22:53:46.362Z,75.21
2019-02-15T22:56:12.962Z,75.14
2019-02-15T22:58:39.536Z,75.61
2019-02-15T23:01:10.379Z,75.44
2019-02-15T23:03:37.215Z,75.27
2019-02-15T23:06:03.815Z,75.45
2019-02-15T23:08:31.863Z,75.92
2019-02-15T23:10:58.412Z,76.23
2019-02-15T23:13:25.784Z,76.43
2019-02-15T23:15:52.337Z,75.39
2019-02-15T23:18:19.217Z,74.99
2019-02-15T23:20:46.293Z,75.32
2019-02-15T23:23:12.920Z,74.83
2019-02-15T23:25:39.506Z,75.16
2019-02-15T23:28:06.134Z,75.57
2019-02-15T23:30:32.715Z,75.77
2019-02-15T23:32:59.287Z,75.56
2019-02-15T23:35:25.857Z,76.27
2019-02-15T23:37:52.493Z,76.00
2019-02-15T23:40:19.097Z,75.29
2019-02-15T23:42:45.791Z,75.22
2019-02-15T23:45:12.373Z,75.19
2019-02-15T23:47:38.935Z,75.54
2019-02-15T23:50:07.927Z,76.09
2019-02-15T23:52:34.499Z,75.88
2019-02-15T23:55:01.169Z,76.23
2019-02-15T23:57:27.714Z,76.40
2019-02-15T23:59:54.324Z,76.14
